Time;durP1;ratioP1;P1;durP2;ratioP2;P2;SDS_P1;SDS_P2;PMS_P1;PMS_P2;Temp;Humidity;BMP_temperature;BMP_pressure;BME280_temperature;BME280_humidity;BME280_pressure;Samples;Min_cycle;Max_cycle;Signal;HPM_P1;HPM_P2
2022/08/06 00:01:36;;;;;;;6.40;4.65;;;;;;;25.15;70.98;97661.22;5053256;28;20056;-74
2022/08/06 00:04:05;;;;;;;5.10;4.35;;;;;;;25.14;70.93;97660.41;5067612;28;20025;-79
2022/08/06 00:06:30;;;;;;;5.68;4.10;;;;;;;25.11;71.36;97655.63;5069891;28;20024;-84
2022/08/06 00:08:55;;;;;;;5.78;4.25;;;;;;;25.09;71.33;97657.22;5068432;28;20082;-78
2022/08/06 00:11:21;;;;;;;5.28;4.47;;;;;;;25.01;72.86;97662.81;5062399;28;20013;-77
2022/08/06 00:13:46;;;;;;;4.72;4.22;;;;;;;24.97;73.06;97664.78;5058218;28;20025;-81
2022/08/06 00:16:12;;;;;;;5.22;4.53;;;;;;;24.96;73.46;97659.59;5056997;28;20102;-79
2022/08/06 00:18:37;;;;;;;6.75;4.50;;;;;;;24.90;74.07;97656.38;5054081;28;20040;-80
2022/08/06 00:21:03;;;;;;;5.07;4.38;;;;;;;24.84;73.82;97665.56;5058025;28;20025;-79
2022/08/06 00:23:28;;;;;;;6.20;5.05;;;;;;;24.72;73.93;97663.09;5055108;28;20477;-79
2022/08/06 00:25:54;;;;;;;4.93;4.43;;;;;;;24.72;72.60;97675.09;5051202;28;20025;-78
2022/08/06 00:28:25;;;;;;;7.25;4.82;;;;;;;24.61;73.02;97670.66;5047211;28;20045;-78
2022/08/06 00:30:51;;;;;;;5.50;4.22;;;;;;;24.58;74.00;97666.66;5046477;28;20454;-78
2022/08/06 00:33:17;;;;;;;6.05;4.93;;;;;;;24.53;75.16;97669.81;5046403;28;20124;-79
2022/08/06 00:35:43;;;;;;;6.43;5.10;;;;;;;24.43;76.00;97660.19;5051490;28;20102;-76
2022/08/06 00:38:09;;;;;;;5.70;4.88;;;;;;;24.36;76.35;97668.56;5049674;28;20546;-78
2022/08/06 00:40:35;;;;;;;8.68;5.38;;;;;;;24.22;77.74;97664.88;5046880;28;20018;-80
2022/08/06 00:43:03;;;;;;;6.15;5.38;;;;;;;24.19;77.65;97669.28;5061320;28;20017;-78
2022/08/06 00:45:33;;;;;;;8.07;4.88;;;;;;;24.11;77.29;97669.59;5056530;28;20048;-78
2022/08/06 00:47:59;;;;;;;5.75;5.18;;;;;;;24.05;78.52;97674.78;5054201;28;20021;-78
2022/08/06 00:50:25;;;;;;;6.43;5.20;;;;;;;23.97;78.40;97661.94;5048065;28;20024;-79
2022/08/06 00:52:50;;;;;;;5.88;5.00;;;;;;;23.85;81.31;97662.25;5046512;28;20369;-78
2022/08/06 00:55:16;;;;;;;7.97;5.38;;;;;;;23.79;79.52;97666.63;5051440;28;20033;-78
2022/08/06 00:57:41;;;;;;;9.75;5.65;;;;;;;23.69;79.06;97664.53;5051619;28;20025;-78
2022/08/06 01:00:07;;;;;;;11.27;5.90;;;;;;;23.67;81.53;97650.19;5051544;28;20033;-79
2022/08/06 01:02:33;;;;;;;6.93;5.53;;;;;;;23.64;82.23;97653.75;5052178;28;20044;-79
2022/08/06 01:04:59;;;;;;;6.32;5.35;;;;;;;23.63;82.90;97660.50;5050217;28;20025;-78
2022/08/06 01:07:24;;;;;;;5.15;4.65;;;;;;;23.59;82.48;97659.72;5041176;28;20037;-78
2022/08/06 01:09:50;;;;;;;9.52;4.97;;;;;;;23.57;83.81;97659.28;5041517;28;20397;-79
2022/08/06 01:12:16;;;;;;;7.18;5.65;;;;;;;23.69;84.35;97658.97;5053883;28;20552;-80
2022/08/06 01:14:41;;;;;;;6.30;5.18;;;;;;;23.67;84.81;97653.78;5053311;28;20059;-78
2022/08/06 01:17:19;;;;;;;5.47;4.80;;;;;;;23.56;82.52;97657.66;5052720;28;20037;-78
2022/08/06 01:19:58;;;;;;;6.13;5.00;;;;;;;23.49;83.82;97654.84;5052318;28;20040;-78
2022/08/06 01:22:50;;;;;;;10.40;5.35;;;;;;;23.35;84.45;97659.09;5052171;28;21075;-79
2022/08/06 01:25:36;;;;;;;6.78;4.85;;;;;;;23.25;85.57;97648.63;5052444;28;20043;-77
2022/08/06 01:28:09;;;;;;;5.28;4.60;;;;;;;23.46;85.97;97662.78;5055647;28;20032;-77
2022/08/06 01:30:46;;;;;;;7.70;5.28;;;;;;;23.55;83.46;97662.47;5073211;28;20043;-77
2022/08/06 01:33:28;;;;;;;6.90;5.20;;;;;;;23.40;86.17;97658.75;5054283;28;20017;-76
2022/08/06 01:35:59;;;;;;;6.93;5.60;;;;;;;23.25;87.74;97651.41;5051258;28;20071;-76
2022/08/06 01:38:34;;;;;;;7.40;5.30;;;;;;;23.09;87.43;97647.28;5054846;28;20029;-75
2022/08/06 01:41:05;;;;;;;5.80;5.20;;;;;;;22.99;89.45;97648.81;5054025;28;20389;-77
2022/08/06 01:43:32;;;;;;;6.93;5.43;;;;;;;22.96;90.54;97649.56;5075036;28;20108;-76
2022/08/06 01:45:59;;;;;;;6.30;4.95;;;;;;;22.93;92.33;97648.31;5072058;28;20028;-76
2022/08/06 01:48:27;;;;;;;8.48;5.43;;;;;;;22.90;90.98;97649.09;5071266;28;20048;-77
2022/08/06 01:50:57;;;;;;;8.30;5.43;;;;;;;22.81;91.34;97651.41;5071465;28;20119;-78
2022/08/06 01:53:29;;;;;;;7.00;5.15;;;;;;;22.83;90.74;97645.44;5071596;28;20061;-78
2022/08/06 01:55:58;;;;;;;5.85;5.20;;;;;;;22.74;91.24;97647.75;5071244;28;20032;-77
2022/08/06 01:58:29;;;;;;;6.78;4.97;;;;;;;22.66;92.43;97646.84;5070551;28;20385;-79
2022/08/06 02:00:56;;;;;;;9.02;5.43;;;;;;;22.60;91.52;97651.16;5071341;28;20111;-78
2022/08/06 02:03:30;;;;;;;7.10;5.47;;;;;;;22.61;92.12;97649.97;5070033;28;20810;-78
2022/08/06 02:05:57;;;;;;;6.13;5.53;;;;;;;22.62;92.44;97656.31;5070078;28;20036;-78
2022/08/06 02:08:26;;;;;;;6.78;5.60;;;;;;;22.66;90.14;97654.41;5070994;28;20028;-77
2022/08/06 02:10:53;;;;;;;6.93;5.57;;;;;;;22.65;91.63;97649.97;5070740;28;20029;-78
2022/08/06 02:13:22;;;;;;;6.10;5.40;;;;;;;22.73;91.03;97651.72;5070845;28;20024;-78
2022/08/06 02:15:49;;;;;;;6.85;5.65;;;;;;;22.72;89.21;97650.09;5070449;28;20429;-78
2022/08/06 02:18:17;;;;;;;7.05;5.60;;;;;;;22.69;91.90;97653.66;5070475;28;20017;-78
2022/08/06 02:20:47;;;;;;;5.15;4.65;;;;;;;22.74;89.63;97658.91;5069793;28;20048;-79
2022/08/06 02:23:17;;;;;;;8.43;5.35;;;;;;;22.73;89.33;97657.28;5070212;28;20051;-76
2022/08/06 02:25:45;;;;;;;7.07;5.45;;;;;;;22.80;90.60;97658.19;5070108;28;20046;-77
2022/08/06 02:28:14;;;;;;;6.90;5.25;;;;;;;22.82;88.94;97661.38;5070915;28;20029;-77
2022/08/06 02:30:43;;;;;;;6.93;5.40;;;;;;;22.78;91.83;97656.94;5070389;28;20374;-77
2022/08/06 02:33:10;;;;;;;5.55;5.05;;;;;;;22.76;91.43;97662.09;5070249;28;20111;-77
2022/08/06 02:35:44;;;;;;;6.55;5.32;;;;;;;22.90;88.22;97662.25;5069465;28;20131;-76
2022/08/06 02:38:17;;;;;;;5.78;5.10;;;;;;;22.93;88.07;97665.06;5070047;28;20025;-76
2022/08/06 02:40:53;;;;;;;7.53;5.07;;;;;;;23.09;85.84;97659.25;5069621;28;20041;-74
2022/08/06 02:43:26;;;;;;;5.72;5.13;;;;;;;23.04;86.16;97665.19;5069466;28;20378;-76
2022/08/06 02:45:57;;;;;;;5.78;4.78;;;;;;;23.07;85.35;97658.03;5069702;28;20071;-74
2022/08/06 02:48:44;;;;;;;6.65;5.13;;;;;;;23.11;85.26;97668.06;5069937;28;20485;-74
2022/08/06 02:51:15;;;;;;;8.35;5.82;;;;;;;23.04;85.68;97665.19;5069481;28;20527;-74
2022/08/06 02:53:57;;;;;;;6.15;5.00;;;;;;;22.97;87.97;97665.09;5069854;28;20032;-73
2022/08/06 02:56:24;;;;;;;10.25;5.90;;;;;;;23.00;86.06;97667.13;5070064;28;20059;-74
2022/08/06 02:58:53;;;;;;;8.25;5.50;;;;;;;23.01;86.20;97668.75;5070106;28;20025;-74
2022/08/06 03:01:22;;;;;;;9.23;5.18;;;;;;;22.98;85.61;97669.50;5070026;28;20040;-73
2022/08/06 03:03:50;;;;;;;15.77;5.32;;;;;;;22.96;86.40;97671.91;5069540;28;20851;-74
2022/08/06 03:06:19;;;;;;;10.18;6.05;;;;;;;22.85;89.59;97663.41;5069108;28;20056;-75
2022/08/06 03:08:45;;;;;;;7.32;5.72;;;;;;;22.74;89.51;97656.13;5069949;28;20098;-74
2022/08/06 03:11:13;;;;;;;5.72;5.13;;;;;;;22.69;87.94;97662.84;5069910;28;20025;-74
2022/08/06 03:13:40;;;;;;;5.85;5.00;;;;;;;22.65;89.06;97669.50;5070111;28;20035;-75
2022/08/06 03:16:06;;;;;;;5.55;4.95;;;;;;;22.55;89.49;97659.06;5070164;28;20033;-74
2022/08/06 03:18:34;;;;;;;5.82;5.22;;;;;;;22.46;91.45;97661.34;5069978;28;20130;-75
2022/08/06 03:21:01;;;;;;;8.38;5.45;;;;;;;22.41;90.45;97662.47;5071718;28;20031;-74
2022/08/06 03:23:29;;;;;;;7.13;5.20;;;;;;;22.34;90.46;97660.41;5073561;28;20020;-75
2022/08/06 03:25:56;;;;;;;7.50;5.72;;;;;;;22.30;91.20;97664.34;5072960;28;20423;-73
2022/08/06 03:28:23;;;;;;;11.02;5.78;;;;;;;22.24;89.85;97669.41;5071112;28;20027;-73
2022/08/06 03:30:49;;;;;;;7.95;5.28;;;;;;;22.18;91.01;97670.13;5070412;28;20024;-74
2022/08/06 03:33:16;;;;;;;6.40;5.53;;;;;;;22.13;91.96;97662.91;5069118;28;20029;-76
2022/08/06 03:35:43;;;;;;;8.55;5.80;;;;;;;22.00;94.10;97664.31;5067339;28;20453;-75
2022/08/06 03:38:09;;;;;;;8.18;5.22;;;;;;;22.04;93.73;97662.41;5069385;28;20098;-74
2022/08/06 03:40:44;;;;;;;6.25;5.13;;;;;;;22.07;93.66;97666.41;5069214;28;20036;-75
2022/08/06 03:43:10;;;;;;;7.50;5.65;;;;;;;22.20;91.76;97657.44;5069027;28;20686;-74
2022/08/06 03:45:39;;;;;;;7.68;5.50;;;;;;;22.26;91.50;97658.72;5069143;28;20334;-75
2022/08/06 03:48:07;;;;;;;8.88;5.60;;;;;;;22.31;91.21;97668.72;5069647;28;20469;-75
2022/08/06 03:50:35;;;;;;;7.60;5.68;;;;;;;22.36;90.43;97662.81;5068774;28;20032;-75
2022/08/06 03:53:05;;;;;;;7.80;6.10;;;;;;;22.38;90.41;97672.41;5069599;28;20111;-76
2022/08/06 03:55:34;;;;;;;9.32;5.78;;;;;;;22.45;90.46;97676.47;5069627;28;20029;-75
2022/08/06 03:58:02;;;;;;;8.30;5.60;;;;;;;22.34;93.18;97670.75;5068702;28;20419;-75
2022/08/06 04:00:32;;;;;;;7.45;5.55;;;;;;;22.26;92.84;97678.22;5071925;28;20025;-75
2022/08/06 04:02:59;;;;;;;9.75;5.75;;;;;;;22.22;93.90;97677.38;5073377;28;20100;-74
2022/08/06 04:05:27;;;;;;;6.53;5.20;;;;;;;22.19;94.90;97674.53;5072079;28;20802;-77
2022/08/06 04:07:58;;;;;;;7.90;5.40;;;;;;;22.12;95.47;97672.44;5072729;28;20059;-76
2022/08/06 04:10:33;;;;;;;7.35;5.65;;;;;;;22.11;94.24;97682.00;5072877;28;20524;-76
2022/08/06 04:13:00;;;;;;;6.90;6.07;;;;;;;22.21;93.82;97688.91;5072976;28;20090;-76
2022/08/06 04:15:26;;;;;;;7.25;5.40;;;;;;;22.22;94.93;97699.66;5072658;28;20079;-73
2022/08/06 04:17:53;;;;;;;5.60;4.78;;;;;;;22.26;95.13;97699.72;5073313;28;20536;-76
2022/08/06 04:20:21;;;;;;;6.90;5.45;;;;;;;22.33;93.78;97703.38;5072360;28;20036;-74
2022/08/06 04:22:46;;;;;;;12.85;6.47;;;;;;;22.47;94.09;97710.31;5072811;28;20025;-74
2022/08/06 04:25:12;;;;;;;6.57;5.88;;;;;;;22.50;93.16;97706.78;5072253;28;20504;-74
2022/08/06 04:27:40;;;;;;;8.20;5.85;;;;;;;22.52;92.17;97712.78;5072282;28;20041;-76
2022/08/06 04:30:06;;;;;;;6.78;5.70;;;;;;;22.67;91.75;97720.19;5071337;28;20761;-74
2022/08/06 04:32:32;;;;;;;8.40;5.70;;;;;;;22.65;90.48;97716.91;5072458;28;20182;-73
2022/08/06 04:35:04;;;;;;;7.30;5.85;;;;;;;22.58;91.07;97716.84;5071389;28;20051;-73
2022/08/06 04:37:31;;;;;;;6.47;5.70;;;;;;;22.51;91.64;97727.91;5072061;28;20063;-75
2022/08/06 04:39:57;;;;;;;11.63;6.18;;;;;;;22.41;93.38;97726.59;5072574;28;20074;-74
2022/08/06 04:42:23;;;;;;;7.07;5.75;;;;;;;22.47;92.72;97733.44;5049739;28;20482;-74
2022/08/06 04:44:49;;;;;;;7.20;5.95;;;;;;;22.54;92.54;97727.16;5048474;28;20037;-75
2022/08/06 04:47:16;;;;;;;6.93;6.22;;;;;;;22.66;91.26;97729.72;5050909;28;20036;-75
2022/08/06 04:49:41;;;;;;;8.02;6.22;;;;;;;22.73;88.92;97735.38;5051263;28;20037;-76
2022/08/06 04:52:07;;;;;;;5.70;5.13;;;;;;;22.85;88.11;97743.50;5052725;28;20032;-75
2022/08/06 04:54:32;;;;;;;9.45;5.40;;;;;;;23.03;86.63;97738.91;5051238;28;20021;-75
2022/08/06 04:56:57;;;;;;;12.13;5.57;;;;;;;23.17;86.04;97739.09;5052116;28;20096;-75
2022/08/06 04:59:23;;;;;;;6.43;5.40;;;;;;;23.33;85.53;97750.81;5050093;28;20075;-74
2022/08/06 05:01:48;;;;;;;7.88;5.90;;;;;;;23.60;82.98;97761.84;5033182;28;20037;-75
2022/08/06 05:04:13;;;;;;;7.40;5.95;;;;;;;23.79;83.23;97759.63;5034271;28;20098;-77
2022/08/06 05:06:52;;;;;;;7.18;5.28;;;;;;;23.90;81.39;97754.13;5037728;28;20021;-79
2022/08/06 05:09:24;;;;;;;6.50;5.45;;;;;;;24.00;80.40;97758.97;5037516;28;20029;-81
2022/08/06 05:12:05;;;;;;;8.07;5.13;;;;;;;24.22;79.60;97762.75;5039670;28;20029;-78
2022/08/06 05:14:49;;;;;;;9.15;5.78;;;;;;;24.22;79.69;97765.53;5034037;28;20026;-78
2022/08/06 05:17:17;;;;;;;7.47;5.90;;;;;;;24.68;79.08;97765.81;5039605;28;20033;-79
2022/08/06 05:19:48;;;;;;;7.80;5.70;;;;;;;25.01;76.67;97762.78;5037898;28;20032;-78
2022/08/06 05:22:16;;;;;;;5.95;5.35;;;;;;;25.18;76.03;97767.66;5036673;28;20061;-77
2022/08/06 05:24:41;;;;;;;7.97;5.25;;;;;;;25.40;75.32;97768.50;5035056;28;20053;-79
2022/08/06 05:27:10;;;;;;;7.32;5.55;;;;;;;25.41;72.09;97770.88;5033538;28;20035;-78
2022/08/06 05:29:35;;;;;;;9.95;5.18;;;;;;;25.80;71.21;97768.16;5033929;28;20414;-80
2022/08/06 05:32:02;;;;;;;10.00;4.88;;;;;;;26.18;69.52;97774.97;5032629;28;20083;-80
2022/08/06 05:34:27;;;;;;;6.00;4.55;;;;;;;26.33;67.98;97782.16;5033337;28;20061;-76
2022/08/06 05:36:53;;;;;;;6.72;5.57;;;;;;;26.67;67.63;97778.88;5043213;28;20053;-80
2022/08/06 05:39:19;;;;;;;6.88;5.35;;;;;;;26.91;64.95;97792.06;5051390;28;20036;-78
2022/08/06 05:41:45;;;;;;;5.50;5.00;;;;;;;26.96;65.11;97792.44;5050893;28;20047;-80
2022/08/06 05:44:11;;;;;;;7.07;5.30;;;;;;;27.08;64.46;97789.19;5052135;28;20485;-78
2022/08/06 05:46:49;;;;;;;5.57;5.00;;;;;;;27.07;63.84;97796.00;5051231;28;20029;-79
2022/08/06 05:49:40;;;;;;;6.20;5.13;;;;;;;26.71;63.96;97785.28;5053789;28;20037;-77
2022/08/06 05:52:15;;;;;;;5.65;4.65;;;;;;;26.78;64.33;97790.88;5054815;28;20037;-79
2022/08/06 05:54:59;;;;;;;5.85;4.95;;;;;;;26.81;63.96;97795.72;5051487;28;20429;-79
2022/08/06 05:57:29;;;;;;;12.07;5.45;;;;;;;26.50;66.22;97786.16;5051327;28;20496;-79
2022/08/06 06:00:11;;;;;;;6.45;5.03;;;;;;;26.68;65.90;97794.50;5053215;28;20028;-79
2022/08/06 06:02:44;;;;;;;6.18;5.47;;;;;;;27.50;62.09;97788.16;5051614;28;20033;-79
2022/08/06 06:05:11;;;;;;;8.25;5.20;;;;;;;29.64;53.74;97797.66;5053963;28;20025;-77
2022/08/06 06:07:37;;;;;;;10.05;5.32;;;;;;;28.95;55.68;97798.16;5051370;28;20025;-78
2022/08/06 06:10:05;;;;;;;6.28;5.68;;;;;;;28.19;60.06;97799.31;5050705;28;20024;-78
2022/08/06 06:12:32;;;;;;;9.05;5.53;;;;;;;27.24;61.39;97799.94;5050704;28;20029;-77
2022/08/06 06:14:59;;;;;;;8.13;5.70;;;;;;;26.74;62.84;97793.69;5050684;28;20029;-78
2022/08/06 06:18:02;;;;;;;7.75;5.57;;;;;;;26.97;63.53;97798.88;5050343;28;20044;-78
2022/08/06 06:20:39;;;;;;;10.82;5.65;;;;;;;26.77;62.66;97808.91;5051495;28;20029;-78
2022/08/06 06:23:19;;;;;;;6.15;4.80;;;;;;;28.03;60.36;97810.28;5050691;28;20116;-79
2022/08/06 06:26:01;;;;;;;8.20;5.50;;;;;;;28.05;59.06;97812.72;5050530;28;20032;-77
2022/08/06 06:28:46;;;;;;;14.48;9.25;;;;;;;27.98;57.99;97812.72;5050760;28;20480;-79
2022/08/06 06:31:18;;;;;;;6.95;5.35;;;;;;;27.99;58.20;97815.13;5053263;28;20029;-78
2022/08/06 06:33:53;;;;;;;22.20;11.65;;;;;;;27.74;59.08;97813.72;5050298;28;20093;-77
2022/08/06 06:36:47;;;;;;;7.00;5.93;;;;;;;28.08;59.16;97823.13;5043995;28;20045;-79
2022/08/06 06:39:48;;;;;;;6.60;5.70;;;;;;;27.70;60.37;97818.56;5029958;28;20029;-77
2022/08/06 06:42:21;;;;;;;5.78;5.18;;;;;;;28.06;58.74;97828.38;5030091;28;20080;-77
2022/08/06 06:45:04;;;;;;;6.72;4.88;;;;;;;27.96;59.43;97829.22;5030123;28;20029;-76
2022/08/06 06:47:45;;;;;;;7.47;4.97;;;;;;;28.56;59.15;97823.91;5028603;28;20375;-77
2022/08/06 06:50:18;;;;;;;8.82;5.78;;;;;;;28.11;57.59;97827.94;5029802;28;20028;-78
2022/08/06 06:52:46;;;;;;;6.47;5.57;;;;;;;28.10;57.95;97831.94;5029842;28;20362;-77
2022/08/06 06:55:33;;;;;;;7.68;5.38;;;;;;;28.54;57.08;97823.50;5030369;28;20113;-79
2022/08/06 06:58:12;;;;;;;8.60;5.65;;;;;;;28.34;57.46;97821.72;5030083;28;20025;-78
2022/08/06 07:00:39;;;;;;;8.48;5.93;;;;;;;28.39;56.40;97827.69;5049738;28;20029;-76
2022/08/06 07:03:06;;;;;;;7.55;5.63;;;;;;;28.48;56.31;97818.75;5049712;28;20029;-77
2022/08/06 07:05:34;;;;;;;7.97;5.90;;;;;;;28.86;54.61;97825.22;5050027;28;20028;-78
2022/08/06 07:08:02;;;;;;;7.68;5.32;;;;;;;29.10;53.64;97829.78;5049560;28;20021;-77
2022/08/06 07:10:30;;;;;;;7.40;4.88;;;;;;;29.25;53.23;97828.41;5048928;28;20025;-78
2022/08/06 07:12:57;;;;;;;5.80;4.63;;;;;;;29.10;55.70;97827.75;5049514;28;20048;-77
2022/08/06 07:15:24;;;;;;;6.15;5.20;;;;;;;29.20;55.12;97826.00;5049667;28;20163;-77
2022/08/06 07:17:50;;;;;;;8.25;4.85;;;;;;;29.30;54.95;97825.13;5049482;28;20025;-77
2022/08/06 07:20:21;;;;;;;9.77;5.30;;;;;;;29.21;54.39;97833.25;5049889;28;20471;-77
2022/08/06 07:22:47;;;;;;;6.20;4.78;;;;;;;29.22;53.94;97830.03;5048572;28;20025;-78
2022/08/06 07:25:14;;;;;;;8.23;5.15;;;;;;;29.71;54.11;97822.94;5049637;28;20024;-77
2022/08/06 07:27:48;;;;;;;8.30;5.07;;;;;;;29.58;52.08;97836.00;5049431;28;20493;-77
2022/08/06 07:30:16;;;;;;;9.05;6.20;;;;;;;30.02;51.20;97834.19;5049935;28;20124;-76
2022/08/06 07:32:44;;;;;;;9.05;5.53;;;;;;;29.96;50.64;97831.03;5049296;28;20033;-77
2022/08/06 07:35:10;;;;;;;8.55;5.03;;;;;;;29.94;50.40;97839.16;5050324;28;20049;-77
2022/08/06 07:37:40;;;;;;;9.73;5.30;;;;;;;29.67;50.95;97838.28;5053169;28;20031;-78
2022/08/06 07:40:14;;;;;;;11.35;5.57;;;;;;;29.84;51.12;97842.13;5052243;28;20097;-78
2022/08/06 07:42:41;;;;;;;10.75;5.13;;;;;;;30.26;49.13;97841.47;5048723;28;20028;-81
2022/08/06 07:45:08;;;;;;;5.97;4.47;;;;;;;30.55;48.50;97847.44;5051362;28;20036;-81
2022/08/06 07:47:41;;;;;;;11.88;5.05;;;;;;;30.43;48.56;97856.53;5050977;28;20035;-79
2022/08/06 07:50:12;;;;;;;5.57;4.70;;;;;;;30.69;49.20;97847.19;5052050;28;20021;-81
2022/08/06 07:52:39;;;;;;;5.47;4.65;;;;;;;31.23;49.18;97842.13;5051509;28;20028;-79
2022/08/06 07:55:07;;;;;;;5.13;4.55;;;;;;;31.70;47.33;97851.25;5051484;28;20032;-84
2022/08/06 07:57:33;;;;;;;6.25;5.03;;;;;;;32.16;44.25;97848.16;5051035;28;20036;-81
2022/08/06 07:59:59;;;;;;;5.88;4.55;;;;;;;33.12;42.41;97851.34;5052306;28;20021;-81
2022/08/06 08:02:24;;;;;;;4.88;4.30;;;;;;;34.76;38.18;97869.41;5050504;28;20035;-79
2022/08/06 08:07:35;;;;;;;8.88;6.85;;;;;;;38.01;32.08;97860.97;5042234;28;20520;-85
2022/08/06 08:10:01;;;;;;;9.15;5.22;;;;;;;37.64;33.92;97857.38;5041607;28;20026;-79
2022/08/06 08:12:27;;;;;;;5.82;4.75;;;;;;;38.18;31.57;97862.16;5040741;28;20035;-80
2022/08/06 08:14:53;;;;;;;5.30;4.68;;;;;;;36.44;33.85;97862.63;5041082;28;20033;-78
2022/08/06 08:17:18;;;;;;;5.30;4.65;;;;;;;35.19;36.38;97860.16;5051584;28;20028;-80
2022/08/06 08:19:44;;;;;;;6.30;4.75;;;;;;;34.69;37.33;97849.72;5051492;28;20448;-79
2022/08/06 08:22:15;;;;;;;6.22;4.80;;;;;;;33.57;39.77;97851.28;5048463;28;20024;-78
2022/08/06 08:24:44;;;;;;;5.35;4.53;;;;;;;32.44;42.12;97851.53;5042103;28;20028;-80
2022/08/06 08:27:14;;;;;;;7.28;5.05;;;;;;;33.34;41.05;97850.31;5048963;28;20124;-79
2022/08/06 08:29:41;;;;;;;6.70;5.60;;;;;;;33.40;41.36;97851.34;5046116;28;20025;-78
2022/08/06 08:32:08;;;;;;;6.72;5.10;;;;;;;33.67;40.42;97853.84;5050342;28;20479;-81
2022/08/06 08:34:35;;;;;;;5.75;5.22;;;;;;;33.50;40.47;97848.63;5047803;28;20045;-79
2022/08/06 08:37:01;;;;;;;6.35;5.30;;;;;;;33.08;41.00;97854.28;5048811;28;20499;-77
2022/08/06 08:39:30;;;;;;;6.63;5.47;;;;;;;33.40;41.49;97848.50;5047137;28;20104;-78
2022/08/06 08:42:24;;;;;;;5.95;4.90;;;;;;;33.46;40.65;97843.06;5040659;28;20018;-76
2022/08/06 08:44:51;;;;;;;7.40;5.30;;;;;;;33.85;39.75;97856.13;5047738;28;20033;-77
2022/08/06 08:47:19;;;;;;;5.03;4.40;;;;;;;33.98;39.40;97850.44;5048594;28;20025;-79
2022/08/06 08:49:58;;;;;;;7.00;5.55;;;;;;;34.05;39.44;97856.66;5049732;28;20049;-76
2022/08/06 08:52:28;;;;;;;8.05;4.75;;;;;;;33.52;39.93;97852.59;5049757;28;20040;-74
2022/08/06 08:54:58;;;;;;;5.78;4.80;;;;;;;33.38;40.59;97850.22;5048052;28;20021;-74
2022/08/06 08:57:26;;;;;;;7.80;5.40;;;;;;;32.68;41.88;97853.75;5047979;28;20431;-74
2022/08/06 08:59:51;;;;;;;6.97;5.18;;;;;;;33.60;40.61;97853.25;5049252;28;20519;-73
2022/08/06 09:02:17;;;;;;;5.65;4.55;;;;;;;34.14;39.11;97853.19;5049770;28;20017;-73
2022/08/06 09:04:43;;;;;;;5.30;4.72;;;;;;;34.31;39.77;97868.84;5048635;28;20504;-73
2022/08/06 09:07:09;;;;;;;6.53;4.20;;;;;;;33.99;37.86;97857.72;5045235;28;20032;-73
2022/08/06 09:09:38;;;;;;;5.30;4.45;;;;;;;34.04;37.52;97862.81;5048404;28;20025;-73
2022/08/06 09:12:04;;;;;;;7.82;4.60;;;;;;;34.30;36.99;97870.13;5047550;28;20032;-73
2022/08/06 09:14:29;;;;;;;8.07;4.90;;;;;;;34.77;36.50;97864.50;5049057;28;20029;-75
2022/08/06 09:16:57;;;;;;;5.32;4.80;;;;;;;34.83;35.57;97865.50;5042905;28;20079;-75
2022/08/06 09:19:22;;;;;;;4.90;4.40;;;;;;;34.35;36.98;97869.53;5042835;28;20045;-75
2022/08/06 09:21:48;;;;;;;8.60;4.63;;;;;;;33.89;37.85;97866.09;5046869;28;20504;-75
2022/08/06 09:24:14;;;;;;;5.43;4.50;;;;;;;34.16;36.95;97873.41;5048115;28;20029;-76
2022/08/06 09:27:06;;;;;;;6.45;4.78;;;;;;;33.58;36.86;97867.84;5054522;28;20048;-76
2022/08/06 09:29:33;;;;;;;5.70;4.68;;;;;;;33.98;36.54;97870.31;5059191;28;20506;-75
2022/08/06 09:31:59;;;;;;;5.72;4.88;;;;;;;34.25;36.11;97867.84;5036839;28;20028;-75
2022/08/06 09:34:33;;;;;;;8.80;5.13;;;;;;;33.81;37.14;97878.94;5063012;28;20021;-74
2022/08/06 09:36:58;;;;;;;4.80;4.30;;;;;;;34.17;36.50;97872.97;5062027;28;20358;-73
2022/08/06 09:39:41;;;;;;;6.97;4.45;;;;;;;34.29;36.63;97877.84;5055114;28;20029;-74
2022/08/06 09:42:07;;;;;;;5.85;5.10;;;;;;;33.76;36.64;97868.16;5047274;28;20474;-74
2022/08/06 09:44:33;;;;;;;8.32;4.88;;;;;;;33.14;38.19;97863.06;5046345;28;20036;-74
2022/08/06 09:47:00;;;;;;;5.28;4.72;;;;;;;33.41;37.51;97860.66;5050104;28;20024;-82
2022/08/06 09:49:25;;;;;;;4.68;4.15;;;;;;;33.03;38.20;97871.03;5045544;28;20159;-74
2022/08/06 09:52:09;;;;;;;5.57;4.22;;;;;;;33.39;37.86;97866.00;5043483;28;20141;-77
2022/08/06 09:54:38;;;;;;;5.53;4.55;;;;;;;33.63;37.08;97870.16;5039547;28;20082;-76
2022/08/06 09:57:04;;;;;;;7.03;4.72;;;;;;;34.12;36.10;97872.72;5047199;28;20033;-76
2022/08/06 09:59:42;;;;;;;5.07;4.38;;;;;;;34.29;35.74;97877.06;5047797;28;20036;-75
2022/08/06 10:02:17;;;;;;;4.85;4.38;;;;;;;34.09;35.99;97880.09;5041327;28;20622;-77
2022/08/06 10:04:43;;;;;;;7.70;4.97;;;;;;;34.26;35.73;97875.13;5047077;28;20048;-78
2022/08/06 10:07:08;;;;;;;5.80;4.13;;;;;;;34.08;35.61;97883.41;5048675;28;20474;-76
2022/08/06 10:09:37;;;;;;;5.20;3.70;;;;;;;34.69;35.48;97885.88;5048088;28;20036;-76
2022/08/06 10:12:16;;;;;;;4.22;3.83;;;;;;;35.20;33.85;97878.81;5041450;28;20074;-79
2022/08/06 10:14:41;;;;;;;5.72;3.40;;;;;;;35.81;32.88;97877.38;5041546;28;20025;-76
2022/08/06 10:17:08;;;;;;;4.03;3.33;;;;;;;35.72;32.56;97880.16;5045457;28;20530;-77
2022/08/06 10:19:34;;;;;;;5.50;3.45;;;;;;;35.83;32.74;97869.97;5045633;28;20025;-77
2022/08/06 10:22:09;;;;;;;6.18;3.40;;;;;;;35.89;32.36;97868.09;5046915;28;20025;-72
2022/08/06 10:24:44;;;;;;;4.43;3.42;;;;;;;35.57;33.42;97857.09;5044633;28;20366;-76
2022/08/06 10:27:12;;;;;;;3.92;3.53;;;;;;;34.93;33.74;97867.16;5045518;28;20134;-75
2022/08/06 10:29:41;;;;;;;7.57;3.90;;;;;;;34.38;34.70;97872.28;5046235;28;20029;-78
2022/08/06 10:32:15;;;;;;;8.93;3.65;;;;;;;33.81;35.66;97864.75;5043355;28;20029;-76
2022/08/06 10:34:42;;;;;;;4.47;3.73;;;;;;;34.46;35.32;97864.28;5043603;28;20061;-75
2022/08/06 10:37:10;;;;;;;4.70;4.30;;;;;;;36.50;32.05;97861.53;5042885;28;20044;-75
2022/08/06 10:39:39;;;;;;;4.32;3.88;;;;;;;36.70;31.14;97868.91;5045174;28;20033;-75
2022/08/06 10:42:06;;;;;;;4.22;3.83;;;;;;;36.57;31.62;97871.88;5043919;28;20040;-76
2022/08/06 10:44:34;;;;;;;5.18;4.20;;;;;;;37.40;30.31;97868.66;5043160;28;20056;-75
2022/08/06 10:47:00;;;;;;;4.32;3.90;;;;;;;36.79;30.98;97866.88;5045514;28;20385;-75
2022/08/06 10:49:26;;;;;;;7.75;4.18;;;;;;;36.15;32.22;97863.00;5045018;28;20124;-74
2022/08/06 10:51:53;;;;;;;8.63;4.75;;;;;;;35.25;34.29;97846.13;5044420;28;20139;-75
2022/08/06 10:54:19;;;;;;;4.82;4.13;;;;;;;34.90;34.85;97851.81;5043231;28;20358;-75
2022/08/06 10:56:48;;;;;;;7.50;4.47;;;;;;;34.76;35.01;97832.44;5043449;28;20130;-75
2022/08/06 10:59:14;;;;;;;11.35;5.18;;;;;;;35.24;34.20;97838.88;5046317;28;20033;-77
2022/08/06 11:01:58;;;;;;;11.30;4.07;;;;;;;35.50;33.83;97837.44;5039691;28;20110;-77
2022/08/06 11:04:50;;;;;;;5.70;3.70;;;;;;;35.45;33.48;97838.84;5045042;28;20112;-74
2022/08/06 11:07:47;;;;;;;5.13;3.90;;;;;;;34.89;34.69;97835.22;5044042;28;20033;-77
2022/08/06 11:10:28;;;;;;;4.35;3.50;;;;;;;34.69;35.05;97835.50;5049116;28;20041;-78
2022/08/06 11:12:59;;;;;;;6.85;4.15;;;;;;;34.56;35.53;97834.72;5046921;28;20111;-78
2022/08/06 11:15:25;;;;;;;5.00;4.15;;;;;;;34.55;35.40;97833.16;5048725;28;20037;-76
2022/08/06 11:18:02;;;;;;;4.80;3.75;;;;;;;34.12;36.16;97832.97;5048269;28;20139;-75
2022/08/06 11:20:36;;;;;;;6.35;3.80;;;;;;;33.71;36.49;97823.28;5046238;28;20303;-77
2022/08/06 11:23:04;;;;;;;4.85;4.13;;;;;;;33.60;37.18;97828.50;5042772;28;20079;-76
2022/08/06 11:25:40;;;;;;;9.70;3.67;;;;;;;33.12;37.96;97823.00;5048026;28;20120;-77
2022/08/06 11:28:17;;;;;;;5.07;3.55;;;;;;;32.66;38.46;97838.44;5043578;28;20032;-75
2022/08/06 11:30:45;;;;;;;6.03;3.67;;;;;;;32.49;39.05;97837.59;5048449;28;20037;-77
2022/08/06 11:33:12;;;;;;;4.18;3.78;;;;;;;32.29;39.37;97860.38;5047980;28;20124;-77
2022/08/06 11:35:40;;;;;;;5.30;4.70;;;;;;;30.62;46.57;97882.00;5047647;28;20041;-76
2022/08/06 11:38:08;;;;;;;5.82;5.30;;;;;;;29.08;53.33;97869.63;5049110;28;20115;-76
2022/08/06 11:40:56;;;;;;;5.97;5.25;;;;;;;28.50;55.02;97873.44;5048948;28;20056;-76
2022/08/06 11:43:43;;;;;;;9.00;4.78;;;;;;;27.88;61.00;97898.00;5047558;28;20044;-78
2022/08/06 11:46:27;;;;;;;21.58;13.40;;;;;;;27.42;66.15;97915.84;5047674;28;20037;-76
2022/08/06 11:48:59;;;;;;;20.52;15.05;;;;;;;26.55;82.89;97980.19;5058180;28;20033;-76